Time;durP1;ratioP1;P1;durP2;ratioP2;P2;SDS_P1;SDS_P2;PMS_P1;PMS_P2;Temp;Humidity;BMP_temperature;BMP_pressure;BME280_temperature;BME280_humidity;BME280_pressure;Samples;Min_cycle;Max_cycle;Signal;HPM_P1;HPM_P2
2022/09/27 00:00:29;;;;;;;9.32;2.60;;;11.20;99.90;;;;;;4956018;28;20106;-56
2022/09/27 00:02:54;;;;;;;7.65;2.80;;;11.40;99.90;;;;;;4956793;28;20114;-57
2022/09/27 00:05:20;;;;;;;8.73;3.00;;;11.30;99.90;;;;;;4955965;28;20057;-56
2022/09/27 00:07:45;;;;;;;8.50;3.00;;;11.40;99.90;;;;;;4958050;28;20058;-56
2022/09/27 00:10:12;;;;;;;10.13;3.20;;;11.50;99.90;;;;;;4954022;28;20043;-57
2022/09/27 00:12:38;;;;;;;13.68;3.42;;;11.30;99.90;;;;;;4953253;28;20063;-57
2022/09/27 00:15:05;;;;;;;11.52;3.10;;;11.30;99.90;;;;;;4954679;28;20042;-57
2022/09/27 00:17:31;;;;;;;11.77;3.03;;;11.30;99.90;;;;;;4960004;28;20046;-57
2022/09/27 00:20:00;;;;;;;11.05;3.22;;;11.30;99.90;;;;;;4958155;28;20119;-56
2022/09/27 00:22:26;;;;;;;10.35;3.30;;;11.40;99.90;;;;;;4957272;28;20130;-57
2022/09/27 00:24:52;;;;;;;17.40;4.13;;;11.40;99.90;;;;;;4952026;28;20046;-56
2022/09/27 00:27:18;;;;;;;10.00;3.47;;;11.30;99.90;;;;;;4955989;28;20039;-57
2022/09/27 00:29:45;;;;;;;11.25;3.60;;;11.30;99.90;;;;;;4957931;28;20043;-57
2022/09/27 00:32:11;;;;;;;11.77;4.28;;;11.30;99.90;;;;;;4951721;28;20036;-55
2022/09/27 00:34:37;;;;;;;11.80;4.70;;;11.30;99.90;;;;;;4953457;28;20297;-57
2022/09/27 00:37:03;;;;;;;15.75;5.32;;;11.40;99.90;;;;;;4956028;28;20039;-56
2022/09/27 00:39:29;;;;;;;13.25;4.95;;;11.40;99.90;;;;;;4959631;28;20481;-57
2022/09/27 00:41:55;;;;;;;14.15;5.45;;;11.40;99.90;;;;;;4958421;28;20080;-55
2022/09/27 00:44:32;;;;;;;13.50;5.50;;;11.30;99.90;;;;;;4956260;28;20034;-57
2022/09/27 00:47:02;;;;;;;11.63;5.78;;;11.30;99.90;;;;;;4955489;28;20495;-57
2022/09/27 00:49:39;;;;;;;12.65;5.35;;;11.20;99.90;;;;;;4954487;28;20418;-57
2022/09/27 00:52:19;;;;;;;10.27;5.00;;;11.20;99.90;;;;;;4952006;28;20035;-56
2022/09/27 00:54:49;;;;;;;11.27;4.88;;;11.20;99.90;;;;;;4952146;28;20094;-57
2022/09/27 00:57:19;;;;;;;9.15;4.72;;;11.30;99.90;;;;;;4959510;28;20043;-57
2022/09/27 01:00:08;;;;;;;12.27;4.70;;;11.20;99.90;;;;;;4957038;28;20094;-57
2022/09/27 01:02:37;;;;;;;12.18;4.10;;;11.10;99.90;;;;;;4959620;28;20126;-57
2022/09/27 01:05:04;;;;;;;12.13;4.57;;;11.10;99.90;;;;;;4959682;28;20107;-56
2022/09/27 01:07:30;;;;;;;12.15;4.20;;;11.10;99.90;;;;;;4957462;28;20050;-57
2022/09/27 01:09:56;;;;;;;10.27;4.70;;;11.10;99.90;;;;;;4955430;28;20036;-57
2022/09/27 01:12:53;;;;;;;7.75;4.10;;;11.10;99.90;;;;;;4952156;28;20118;-57
2022/09/27 01:16:00;;;;;;;8.98;3.92;;;11.10;99.90;;;;;;4960312;28;20035;-56
2022/09/27 01:18:39;;;;;;;16.33;5.00;;;10.90;99.90;;;;;;4941171;28;20043;-57
2022/09/27 01:21:32;;;;;;;11.10;4.57;;;11.10;99.90;;;;;;4955445;28;20169;-57
2022/09/27 01:24:10;;;;;;;9.10;4.68;;;11.20;99.90;;;;;;4960045;28;20117;-56
2022/09/27 01:26:53;;;;;;;14.95;5.22;;;11.10;99.90;;;;;;4953998;28;20130;-57
2022/09/27 01:29:39;;;;;;;15.05;5.18;;;11.10;99.90;;;;;;4955065;28;20101;-57
2022/09/27 01:32:13;;;;;;;9.18;4.80;;;11.00;99.90;;;;;;4960824;28;20031;-57
2022/09/27 01:35:03;;;;;;;9.60;5.35;;;11.00;99.90;;;;;;4977239;28;20757;-56
2022/09/27 01:37:55;;;;;;;10.45;5.55;;;11.00;99.90;;;;;;4954918;28;20088;-56
2022/09/27 01:40:29;;;;;;;11.02;5.55;;;11.10;99.90;;;;;;4959680;28;20588;-57
2022/09/27 01:43:09;;;;;;;12.48;5.22;;;11.00;99.90;;;;;;4960254;28;20141;-57
2022/09/27 01:45:59;;;;;;;13.15;5.70;;;11.20;99.90;;;;;;4953833;28;20039;-56
2022/09/27 01:48:32;;;;;;;10.65;6.25;;;11.10;99.90;;;;;;4959345;28;20046;-56
2022/09/27 01:51:08;;;;;;;16.08;6.30;;;11.10;99.90;;;;;;4960192;28;20499;-57
2022/09/27 01:53:38;;;;;;;11.43;6.10;;;11.10;99.90;;;;;;4954411;28;20039;-57
2022/09/27 01:56:08;;;;;;;11.88;6.10;;;11.10;99.90;;;;;;4954622;28;20035;-56
2022/09/27 01:58:49;;;;;;;12.57;5.88;;;11.30;99.90;;;;;;4955853;28;20124;-57
2022/09/27 02:01:16;;;;;;;15.45;6.10;;;11.20;99.90;;;;;;4958173;28;20117;-57
2022/09/27 02:03:48;;;;;;;12.95;6.22;;;11.20;99.90;;;;;;4952853;28;20443;-57
2022/09/27 02:06:24;;;;;;;13.68;5.97;;;11.20;99.90;;;;;;4959844;28;20506;-57
2022/09/27 02:08:53;;;;;;;9.77;5.43;;;11.10;99.90;;;;;;4963362;28;20585;-57
2022/09/27 02:11:19;;;;;;;14.45;6.03;;;11.00;99.90;;;;;;4956715;28;21644;-56
2022/09/27 02:13:57;;;;;;;9.82;5.40;;;11.10;99.90;;;;;;4954733;28;20044;-57
2022/09/27 02:16:40;;;;;;;10.27;5.88;;;10.90;99.90;;;;;;4960569;28;20054;-58
2022/09/27 02:19:30;;;;;;;11.30;5.38;;;10.90;99.90;;;;;;4955226;28;20125;-57
2022/09/27 02:22:16;;;;;;;12.77;5.70;;;11.00;99.90;;;;;;4951625;28;20038;-58
2022/09/27 02:25:02;;;;;;;13.73;5.97;;;11.00;99.90;;;;;;4953546;28;20042;-58
2022/09/27 02:27:30;;;;;;;14.52;6.50;;;11.10;99.90;;;;;;4959174;28;20343;-57
2022/09/27 02:30:04;;;;;;;12.98;6.68;;;11.10;99.90;;;;;;4957679;28;20063;-56
2022/09/27 02:32:31;;;;;;;11.43;6.60;;;11.00;99.90;;;;;;4961732;28;20043;-57
2022/09/27 02:35:01;;;;;;;14.27;6.47;;;11.00;99.90;;;;;;4958637;28;20128;-57
2022/09/27 02:37:26;;;;;;;15.07;6.65;;;10.80;99.90;;;;;;4955780;28;20442;-56
2022/09/27 02:39:52;;;;;;;11.60;6.10;;;10.80;99.90;;;;;;4959168;28;20051;-58
2022/09/27 02:42:18;;;;;;;12.80;6.40;;;10.80;99.90;;;;;;4958678;28;20512;-56
2022/09/27 02:44:44;;;;;;;8.88;5.20;;;10.70;99.90;;;;;;4952554;28;20119;-57
2022/09/27 02:47:27;;;;;;;17.38;5.65;;;10.70;99.90;;;;;;4954043;28;20126;-56
2022/09/27 02:50:07;;;;;;;11.27;5.55;;;10.70;99.90;;;;;;4957930;28;20035;-57
2022/09/27 02:52:49;;;;;;;10.95;5.07;;;10.70;99.90;;;;;;4951096;28;20131;-57
2022/09/27 02:55:30;;;;;;;10.43;4.60;;;10.80;99.90;;;;;;4954225;28;20488;-55
2022/09/27 02:58:12;;;;;;;10.82;4.90;;;10.80;99.90;;;;;;4955884;28;20050;-56
2022/09/27 03:00:48;;;;;;;8.77;4.30;;;10.90;99.90;;;;;;4951870;28;20043;-56
2022/09/27 03:03:21;;;;;;;9.35;4.43;;;10.90;99.90;;;;;;4959360;28;20963;-57
2022/09/27 03:06:05;;;;;;;8.65;3.88;;;10.80;99.90;;;;;;4957489;28;20050;-57
2022/09/27 03:08:30;;;;;;;10.02;4.00;;;10.80;99.90;;;;;;4959454;28;20043;-57
2022/09/27 03:10:56;;;;;;;13.82;4.05;;;10.70;99.90;;;;;;4960877;28;20493;-55
2022/09/27 03:13:21;;;;;;;5.53;3.38;;;10.80;99.90;;;;;;4956674;28;20085;-57
2022/09/27 03:15:47;;;;;;;6.35;3.22;;;10.70;99.90;;;;;;4956778;28;20122;-57
2022/09/27 03:18:13;;;;;;;6.90;3.45;;;10.60;99.90;;;;;;4962518;28;20141;-57
2022/09/27 03:20:38;;;;;;;6.93;3.17;;;10.70;99.90;;;;;;4959858;28;20105;-57
2022/09/27 03:23:04;;;;;;;10.63;3.38;;;10.70;99.90;;;;;;4959972;28;20616;-57
2022/09/27 03:25:30;;;;;;;5.57;2.83;;;10.60;99.90;;;;;;4958176;28;20042;-58
2022/09/27 03:27:55;;;;;;;6.63;2.70;;;10.70;99.90;;;;;;4953011;28;21140;-56
2022/09/27 03:30:21;;;;;;;5.75;2.65;;;10.60;99.90;;;;;;4957356;28;20043;-57
2022/09/27 03:32:47;;;;;;;5.25;2.67;;;10.70;99.90;;;;;;4955375;28;20027;-56
2022/09/27 03:35:13;;;;;;;6.07;2.20;;;10.70;99.90;;;;;;4959279;28;20043;-57
2022/09/27 03:37:39;;;;;;;7.95;2.53;;;10.70;99.90;;;;;;4953784;28;20184;-57
2022/09/27 03:40:06;;;;;;;6.55;2.22;;;10.60;99.90;;;;;;4958474;28;20058;-57
2022/09/27 03:42:32;;;;;;;5.00;2.33;;;10.60;99.90;;;;;;4954404;28;20688;-56
2022/09/27 03:44:57;;;;;;;6.10;2.33;;;10.50;99.90;;;;;;4957795;28;20141;-57
2022/09/27 03:47:23;;;;;;;9.73;2.30;;;10.60;99.90;;;;;;4954056;28;20039;-57
2022/09/27 03:49:48;;;;;;;7.30;2.83;;;10.60;99.90;;;;;;4951966;28;20039;-57
2022/09/27 03:52:15;;;;;;;3.78;2.20;;;10.60;99.90;;;;;;4951744;28;20042;-58
2022/09/27 03:54:41;;;;;;;5.53;2.53;;;10.50;99.90;;;;;;4952941;28;20425;-57
2022/09/27 03:57:07;;;;;;;5.88;2.60;;;10.60;99.90;;;;;;4954166;28;20130;-55
2022/09/27 03:59:32;;;;;;;5.55;3.10;;;10.60;99.90;;;;;;4956106;28;20549;-55
2022/09/27 04:01:58;;;;;;;6.78;2.28;;;10.60;99.90;;;;;;4954061;28;20429;-57
2022/09/27 04:04:24;;;;;;;6.55;2.53;;;10.60;99.90;;;;;;4949369;28;20318;-56
2022/09/27 04:06:49;;;;;;;11.98;2.70;;;10.60;99.90;;;;;;4951159;28;20095;-57
2022/09/27 04:09:15;;;;;;;7.75;2.72;;;10.50;99.90;;;;;;4955138;28;20042;-56
2022/09/27 04:11:40;;;;;;;10.27;2.10;;;10.60;99.90;;;;;;4958877;28;20054;-57
2022/09/27 04:14:07;;;;;;;7.95;2.40;;;10.60;99.90;;;;;;4957392;28;20126;-56
2022/09/27 04:16:33;;;;;;;8.52;2.63;;;10.60;99.90;;;;;;4960833;28;20030;-55
2022/09/27 04:19:00;;;;;;;5.55;2.08;;;10.40;99.90;;;;;;4961083;28;22230;-57
2022/09/27 04:21:26;;;;;;;9.30;2.25;;;10.40;99.90;;;;;;4958237;28;20049;-57
2022/09/27 04:23:52;;;;;;;11.65;2.17;;;10.40;99.90;;;;;;4957252;28;20039;-57
2022/09/27 04:26:18;;;;;;;5.07;1.73;;;10.30;99.90;;;;;;4958201;28;20046;-57
2022/09/27 04:28:45;;;;;;;5.72;1.50;;;10.40;99.90;;;;;;4960015;28;20034;-58
2022/09/27 04:31:10;;;;;;;6.20;1.95;;;10.40;99.90;;;;;;4959461;28;20533;-57
2022/09/27 04:33:36;;;;;;;5.75;1.63;;;10.40;99.90;;;;;;4960796;28;20055;-56
2022/09/27 04:38:46;;;;;;;7.68;2.15;;;10.30;99.90;;;;;;4959629;28;20054;-57
2022/09/27 04:41:12;;;;;;;3.88;1.35;;;10.20;99.90;;;;;;4958206;28;20503;-56
2022/09/27 04:43:38;;;;;;;8.02;1.60;;;10.20;99.90;;;;;;4951544;28;20053;-56
2022/09/27 04:46:03;;;;;;;6.85;1.67;;;10.20;99.90;;;;;;4962652;28;20104;-57
2022/09/27 04:48:29;;;;;;;5.07;1.40;;;10.30;99.90;;;;;;4964648;28;20050;-56
2022/09/27 04:50:56;;;;;;;4.90;1.42;;;10.40;99.90;;;;;;4957800;28;20055;-57
2022/09/27 04:53:22;;;;;;;6.10;1.40;;;10.40;99.90;;;;;;4956806;28;20192;-57
2022/09/27 04:55:48;;;;;;;6.68;1.30;;;10.30;99.90;;;;;;4965540;28;20237;-56
2022/09/27 04:58:14;;;;;;;5.53;1.77;;;10.30;99.90;;;;;;4961406;28;20031;-56
2022/09/27 05:00:42;;;;;;;7.20;1.40;;;10.10;99.90;;;;;;4964117;28;20422;-57
2022/09/27 05:03:07;;;;;;;6.75;1.50;;;10.00;99.90;;;;;;4960661;28;20058;-57
2022/09/27 05:05:33;;;;;;;6.47;1.17;;;10.10;99.90;;;;;;4957315;28;20521;-57
2022/09/27 05:07:59;;;;;;;3.88;1.13;;;10.10;99.90;;;;;;4961703;28;20046;-56
2022/09/27 05:10:24;;;;;;;5.97;1.30;;;10.00;99.90;;;;;;4959474;28;20042;-56
2022/09/27 05:12:50;;;;;;;5.32;1.48;;;10.10;99.90;;;;;;4958398;28;20039;-56
2022/09/27 05:15:15;;;;;;;11.73;1.60;;;10.10;99.90;;;;;;4961691;28;20092;-57
2022/09/27 05:17:41;;;;;;;6.40;1.80;;;10.20;99.90;;;;;;4961926;28;20097;-57
2022/09/27 05:20:09;;;;;;;4.45;1.30;;;10.20;99.90;;;;;;4961827;28;20031;-56
2022/09/27 05:22:34;;;;;;;6.88;1.45;;;10.10;99.90;;;;;;4961829;28;20062;-57
2022/09/27 05:25:00;;;;;;;6.22;1.70;;;10.10;99.90;;;;;;4959004;28;20420;-56
2022/09/27 05:27:26;;;;;;;6.35;1.27;;;10.10;99.90;;;;;;4958738;28;20131;-56
2022/09/27 05:29:52;;;;;;;4.80;1.38;;;10.00;99.90;;;;;;4964487;28;20563;-56
2022/09/27 05:32:17;;;;;;;8.25;1.35;;;10.00;99.90;;;;;;4957603;28;20059;-57
2022/09/27 05:34:43;;;;;;;8.20;1.60;;;10.00;99.90;;;;;;4953239;28;20035;-57
2022/09/27 05:37:09;;;;;;;7.35;1.67;;;10.00;99.90;;;;;;4956239;28;20070;-57
2022/09/27 05:39:35;;;;;;;6.43;1.50;;;10.00;99.90;;;;;;4962147;28;20114;-57
2022/09/27 05:42:01;;;;;;;6.10;1.45;;;10.10;99.90;;;;;;4958783;28;20151;-57
2022/09/27 05:44:27;;;;;;;4.20;1.40;;;10.20;99.90;;;;;;4962625;28;20039;-56
2022/09/27 05:46:52;;;;;;;4.50;1.58;;;10.20;99.90;;;;;;4961487;28;20388;-56
2022/09/27 05:49:19;;;;;;;4.72;1.60;;;10.20;99.90;;;;;;4963661;28;20135;-57
2022/09/27 05:51:44;;;;;;;5.93;1.45;;;10.30;99.90;;;;;;4958392;28;20083;-55
2022/09/27 05:54:10;;;;;;;4.50;1.27;;;10.30;99.90;;;;;;4958791;28;20035;-57
2022/09/27 05:56:35;;;;;;;5.35;1.48;;;10.30;99.90;;;;;;4957820;28;20103;-57
2022/09/27 05:59:01;;;;;;;7.57;1.70;;;10.40;99.90;;;;;;4964015;28;20057;-56
2022/09/27 06:01:27;;;;;;;7.80;1.92;;;10.50;99.90;;;;;;4959755;28;20043;-56
2022/09/27 06:03:53;;;;;;;6.55;2.38;;;10.40;99.90;;;;;;4955112;28;20162;-56
2022/09/27 06:06:21;;;;;;;4.97;1.38;;;10.50;99.90;;;;;;4956888;28;20061;-56
2022/09/27 06:08:48;;;;;;;7.60;1.83;;;10.50;99.90;;;;;;4954233;28;20142;-56
2022/09/27 06:11:14;;;;;;;10.90;2.13;;;10.50;99.90;;;;;;4958460;28;20506;-57
2022/09/27 06:13:40;;;;;;;6.30;1.50;;;10.60;99.90;;;;;;4955129;28;20526;-58
2022/09/27 06:16:08;;;;;;;8.32;1.58;;;10.70;99.90;;;;;;4958911;28;20043;-56
2022/09/27 06:18:34;;;;;;;5.45;1.40;;;10.60;99.90;;;;;;4954763;28;20744;-57
2022/09/27 06:21:00;;;;;;;3.38;1.30;;;10.70;99.90;;;;;;4954523;28;20042;-57
2022/09/27 06:23:26;;;;;;;5.95;1.33;;;10.60;99.90;;;;;;4958293;28;20051;-56
2022/09/27 06:25:53;;;;;;;6.07;1.20;;;10.60;99.90;;;;;;4957624;28;20330;-56
2022/09/27 06:28:20;;;;;;;2.40;0.90;;;10.60;99.90;;;;;;4959124;28;20034;-57
2022/09/27 06:30:49;;;;;;;3.28;1.23;;;10.40;99.90;;;;;;4955513;28;20081;-56
2022/09/27 06:33:18;;;;;;;7.45;1.27;;;10.50;99.90;;;;;;4961802;28;20046;-57
2022/09/27 06:35:44;;;;;;;4.80;0.95;;;10.50;99.90;;;;;;4955570;28;20050;-56
2022/09/27 06:38:12;;;;;;;3.22;1.25;;;10.60;99.90;;;;;;4952234;28;20790;-57
2022/09/27 06:40:38;;;;;;;6.20;1.25;;;10.60;99.90;;;;;;4963419;28;20100;-56
2022/09/27 06:43:07;;;;;;;5.85;1.25;;;10.50;99.90;;;;;;4955049;28;20039;-57
2022/09/27 06:45:34;;;;;;;2.90;1.05;;;10.50;99.90;;;;;;4955545;28;20140;-57
2022/09/27 06:48:01;;;;;;;7.38;1.50;;;10.50;99.90;;;;;;4952666;28;20038;-56
2022/09/27 06:50:28;;;;;;;6.65;1.40;;;10.50;99.90;;;;;;4960083;28;20064;-57
2022/09/27 06:52:54;;;;;;;4.45;1.60;;;10.40;99.90;;;;;;4956326;28;20534;-57
2022/09/27 06:55:19;;;;;;;2.78;0.90;;;10.50;99.90;;;;;;4960176;28;20043;-57
2022/09/27 07:00:29;;;;;;;4.95;1.08;;;10.60;99.90;;;;;;4953321;28;20089;-57
2022/09/27 07:02:59;;;;;;;5.05;1.20;;;10.70;99.90;;;;;;4955710;28;20046;-56
2022/09/27 07:05:26;;;;;;;3.00;1.40;;;10.70;99.90;;;;;;4954125;28;20420;-57
2022/09/27 07:07:55;;;;;;;4.80;1.13;;;10.70;99.90;;;;;;4957634;28;20478;-56
2022/09/27 07:10:20;;;;;;;5.07;1.38;;;10.70;99.90;;;;;;4953105;28;21133;-56
2022/09/27 07:12:49;;;;;;;6.40;1.33;;;10.80;99.90;;;;;;4951312;28;20042;-58
2022/09/27 07:15:14;;;;;;;5.65;1.27;;;10.80;99.90;;;;;;4961650;28;20039;-57
2022/09/27 07:17:41;;;;;;;4.55;1.20;;;10.70;99.90;;;;;;4957622;28;20490;-57
2022/09/27 07:20:07;;;;;;;3.40;1.02;;;10.70;99.90;;;;;;4955615;28;20042;-55
2022/09/27 07:22:39;;;;;;;3.30;1.13;;;10.80;99.90;;;;;;4954507;28;20109;-58
2022/09/27 07:25:05;;;;;;;4.23;1.33;;;10.90;99.90;;;;;;4959185;28;20100;-56
2022/09/27 07:27:32;;;;;;;3.30;1.20;;;10.90;99.90;;;;;;4953153;28;20474;-58
2022/09/27 07:29:57;;;;;;;4.28;1.40;;;10.90;99.90;;;;;;4956664;28;20047;-57
2022/09/27 07:32:23;;;;;;;3.90;1.17;;;11.00;99.90;;;;;;4950626;28;20089;-56
2022/09/27 07:34:48;;;;;;;3.38;1.02;;;11.00;99.90;;;;;;4954084;28;20081;-56
2022/09/27 07:37:14;;;;;;;3.30;1.00;;;11.00;99.90;;;;;;4953795;28;20042;-56
2022/09/27 07:39:39;;;;;;;4.80;0.90;;;11.00;99.90;;;;;;4957321;28;20038;-56
2022/09/27 07:42:05;;;;;;;4.00;1.15;;;11.10;99.90;;;;;;4953098;28;20118;-57
2022/09/27 07:44:31;;;;;;;4.53;1.02;;;11.00;99.90;;;;;;4955473;28;20031;-57
2022/09/27 07:46:57;;;;;;;2.60;1.02;;;11.20;99.90;;;;;;4953604;28;20063;-55
2022/09/27 07:49:23;;;;;;;4.32;0.90;;;11.30;99.90;;;;;;4957702;28;20039;-57
2022/09/27 07:51:49;;;;;;;5.78;1.00;;;11.30;99.90;;;;;;4956685;28;20037;-57
2022/09/27 07:54:14;;;;;;;4.53;0.90;;;11.40;99.90;;;;;;4954765;28;20420;-57
2022/09/27 07:56:40;;;;;;;4.00;1.38;;;11.40;99.90;;;;;;4953377;28;20039;-57
2022/09/27 07:59:05;;;;;;;3.53;0.80;;;11.30;99.90;;;;;;4957007;28;20034;-58
2022/09/27 08:01:31;;;;;;;4.97;1.30;;;11.30;99.90;;;;;;4955624;28;20680;-58
2022/09/27 08:03:57;;;;;;;5.30;1.10;;;11.30;99.90;;;;;;4962172;28;23192;-58
2022/09/27 08:06:23;;;;;;;2.42;1.00;;;11.30;99.90;;;;;;4950506;28;20086;-57
2022/09/27 08:08:49;;;;;;;3.50;1.17;;;11.10;99.90;;;;;;4952675;28;20034;-56
2022/09/27 08:11:17;;;;;;;3.10;0.95;;;11.00;99.90;;;;;;4950834;28;20511;-57
2022/09/27 08:13:43;;;;;;;1.95;0.80;;;11.00;99.90;;;;;;4954619;28;20118;-56
2022/09/27 08:16:13;;;;;;;3.78;0.93;;;11.00;99.90;;;;;;4951334;28;20039;-57
2022/09/27 08:18:38;;;;;;;2.75;0.98;;;11.10;99.90;;;;;;4954364;28;20034;-57
2022/09/27 08:21:04;;;;;;;1.60;1.05;;;11.30;99.90;;;;;;4951573;28;20030;-56
2022/09/27 08:23:30;;;;;;;2.13;1.00;;;11.40;99.90;;;;;;4956483;28;20039;-57
2022/09/27 08:25:58;;;;;;;2.08;0.98;;;11.30;99.90;;;;;;4957667;28;20209;-58
2022/09/27 08:28:27;;;;;;;3.55;1.15;;;11.30;99.90;;;;;;4956222;28;20494;-57
2022/09/27 08:30:53;;;;;;;3.42;0.98;;;11.30;99.90;;;;;;4951213;28;20078;-57
2022/09/27 08:33:18;;;;;;;1.05;0.70;;;11.30;99.90;;;;;;4953766;28;20530;-56
2022/09/27 08:35:44;;;;;;;2.08;0.70;;;11.30;99.90;;;;;;4959102;28;20036;-58
2022/09/27 08:38:10;;;;;;;2.75;0.70;;;11.30;99.90;;;;;;4948220;28;20030;-57
2022/09/27 08:40:56;;;;;;;1.42;0.82;;;11.30;99.90;;;;;;4955898;28;20683;-56
2022/09/27 08:43:36;;;;;;;2.05;0.98;;;11.10;99.90;;;;;;4956510;28;20043;-57
2022/09/27 08:46:07;;;;;;;3.00;0.88;;;11.20;99.90;;;;;;4949125;28;20066;-57
2022/09/27 08:48:36;;;;;;;3.28;1.23;;;11.10;99.90;;;;;;4950433;28;20109;-57
2022/09/27 08:51:04;;;;;;;144.25;93.43;;;11.20;99.90;;;;;;4950865;28;20050;-57
2022/09/27 08:53:39;;;;;;;4.75;1.65;;;11.30;99.90;;;;;;4955593;28;20159;-57
2022/09/27 08:56:08;;;;;;;4.00;1.77;;;11.30;99.90;;;;;;4957759;28;20054;-57
2022/09/27 08:58:38;;;;;;;3.15;1.58;;;11.40;99.90;;;;;;4955309;28;20082;-56
2022/09/27 09:01:05;;;;;;;4.18;1.70;;;11.50;99.90;;;;;;4955608;28;20050;-57
2022/09/27 09:03:39;;;;;;;3.78;1.92;;;11.30;99.90;;;;;;4948353;28;20043;-57
2022/09/27 09:06:21;;;;;;;3.17;1.80;;;11.30;99.90;;;;;;4953097;28;23747;-57
2022/09/27 09:09:18;;;;;;;2.28;1.30;;;11.30;99.90;;;;;;4954981;28;20458;-57
2022/09/27 09:14:57;;;;;;;3.05;1.90;;;11.50;99.90;;;;;;4957556;28;20984;-58
2022/09/27 09:17:40;;;;;;;3.70;1.77;;;11.70;99.90;;;;;;4959247;28;20066;-57
2022/09/27 09:20:25;;;;;;;4.90;2.50;;;11.80;99.90;;;;;;4955312;28;20031;-58
2022/09/27 09:23:12;;;;;;;7.10;2.70;;;11.80;99.90;;;;;;4951774;28;20459;-58
2022/09/27 09:26:00;;;;;;;5.88;3.10;;;11.80;99.90;;;;;;4958779;28;20039;-56
2022/09/27 09:28:48;;;;;;;7.85;2.90;;;11.90;99.90;;;;;;4961288;28;20875;-58
2022/09/27 09:31:32;;;;;;;4.10;3.03;;;12.10;99.90;;;;;;4952276;28;20035;-56
2022/09/27 09:34:11;;;;;;;6.00;3.13;;;12.30;99.90;;;;;;4956187;28;20071;-57
2022/09/27 09:36:55;;;;;;;4.40;3.22;;;12.40;99.90;;;;;;4961349;28;20069;-57
2022/09/27 09:39:46;;;;;;;5.15;3.30;;;12.40;99.90;;;;;;4954881;28;20392;-57
2022/09/27 09:42:18;;;;;;;4.72;3.10;;;12.10;99.90;;;;;;4963391;28;20058;-56
2022/09/27 09:45:15;;;;;;;6.05;3.20;;;12.20;99.90;;;;;;4960139;28;20028;-54
2022/09/27 09:48:03;;;;;;;4.88;3.50;;;12.30;99.90;;;;;;4954135;28;20090;-57
2022/09/27 09:50:43;;;;;;;5.72;3.72;;;12.30;99.90;;;;;;4961811;28;20571;-57
2022/09/27 09:53:25;;;;;;;6.28;3.28;;;12.40;99.90;;;;;;4954811;28;20027;-56
2022/09/27 09:56:04;;;;;;;5.67;3.33;;;12.40;99.90;;;;;;4955062;28;20031;-57
2022/09/27 09:59:02;;;;;;;6.57;3.17;;;12.30;99.90;;;;;;4957941;28;20516;-57
2022/09/27 10:01:34;;;;;;;7.93;2.88;;;12.60;99.90;;;;;;4951914;28;20507;-57
2022/09/27 10:04:00;;;;;;;6.57;3.28;;;12.50;99.90;;;;;;4956933;28;20039;-56
2022/09/27 10:06:27;;;;;;;10.70;3.78;;;12.70;99.90;;;;;;4960164;28;20047;-57
2022/09/27 10:08:54;;;;;;;5.55;3.22;;;12.60;99.90;;;;;;4954921;28;20063;-56
2022/09/27 10:11:32;;;;;;;5.55;2.72;;;12.60;99.90;;;;;;4957184;28;20077;-57
2022/09/27 10:13:58;;;;;;;6.30;3.05;;;12.50;99.90;;;;;;4955249;28;20367;-57
2022/09/27 10:16:27;;;;;;;5.03;2.22;;;12.50;99.90;;;;;;4954309;28;20105;-57
2022/09/27 10:18:58;;;;;;;3.33;2.00;;;12.40;99.90;;;;;;4958059;28;20110;-57
2022/09/27 10:21:31;;;;;;;5.63;2.30;;;12.40;99.90;;;;;;4961609;28;20050;-57
2022/09/27 10:24:04;;;;;;;4.57;1.65;;;12.50;99.90;;;;;;4961299;28;20066;-56
2022/09/27 10:26:31;;;;;;;5.60;1.85;;;12.40;99.90;;;;;;4957536;28;20389;-56
2022/09/27 10:29:12;;;;;;;4.35;2.20;;;12.50;99.90;;;;;;4953891;28;20046;-57
2022/09/27 10:31:40;;;;;;;4.30;1.88;;;12.40;99.90;;;;;;4956110;28;20086;-57
2022/09/27 10:34:18;;;;;;;5.25;2.83;;;12.40;99.90;;;;;;4954120;28;20094;-58
2022/09/27 10:36:44;;;;;;;5.97;3.17;;;12.40;99.90;;;;;;4949866;28;20053;-56
2022/09/27 10:39:21;;;;;;;5.88;3.47;;;12.40;99.90;;;;;;4951494;28;20031;-57
2022/09/27 10:41:46;;;;;;;4.47;3.30;;;12.30;99.90;;;;;;4951711;28;20035;-57
2022/09/27 10:44:14;;;;;;;6.68;3.90;;;12.30;99.90;;;;;;4952140;28;20109;-57
2022/09/27 10:46:43;;;;;;;4.97;3.83;;;12.30;99.90;;;;;;4957026;28;20194;-58
2022/09/27 10:49:18;;;;;;;7.38;4.80;;;12.40;99.90;;;;;;4959597;28;20388;-56
2022/09/27 10:51:45;;;;;;;6.32;5.20;;;12.30;99.90;;;;;;4957225;28;20495;-58
2022/09/27 10:54:26;;;;;;;6.15;4.70;;;12.40;99.90;;;;;;4959862;28;20031;-58
2022/09/27 10:57:13;;;;;;;7.15;4.75;;;12.50;99.90;;;;;;4951480;28;20043;-57
2022/09/27 10:59:42;;;;;;;6.70;4.32;;;12.40;99.90;;;;;;4956281;28;20434;-57
2022/09/27 11:02:21;;;;;;;6.22;4.57;;;12.50;99.90;;;;;;4954886;28;20133;-57
2022/09/27 11:05:06;;;;;;;5.88;5.00;;;12.60;99.90;;;;;;4953533;28;20109;-56
2022/09/27 11:07:36;;;;;;;7.85;5.30;;;12.50;99.90;;;;;;4947989;28;20556;-58
2022/09/27 11:10:21;;;;;;;6.07;4.35;;;12.60;99.90;;;;;;4950020;28;20031;-58
2022/09/27 11:13:05;;;;;;;6.75;4.85;;;12.40;99.90;;;;;;4951884;28;20046;-55
2022/09/27 11:15:53;;;;;;;5.20;4.25;;;12.70;99.90;;;;;;4950348;28;20043;-57
2022/09/27 11:18:27;;;;;;;4.68;4.07;;;12.70;99.90;;;;;;4950484;28;20055;-57
2022/09/27 11:21:13;;;;;;;5.00;4.38;;;12.90;99.90;;;;;;4954863;28;20035;-58
2022/09/27 11:24:07;;;;;;;6.95;4.38;;;13.10;99.90;;;;;;4950541;28;20360;-57
2022/09/27 11:26:53;;;;;;;5.60;3.90;;;13.30;99.90;;;;;;4952139;28;20042;-57
2022/09/27 11:29:34;;;;;;;8.43;4.78;;;13.20;99.90;;;;;;4953892;28;20039;-58
2022/09/27 11:32:08;;;;;;;4.95;3.58;;;13.10;99.90;;;;;;4955860;28;20035;-57
2022/09/27 11:34:58;;;;;;;5.40;3.78;;;13.00;99.90;;;;;;4956376;28;20042;-58
2022/09/27 11:37:36;;;;;;;8.35;3.40;;;13.10;99.90;;;;;;4953262;28;20093;-57
2022/09/27 11:40:33;;;;;;;4.65;3.50;;;13.10;99.90;;;;;;4952967;28;20035;-57
2022/09/27 11:43:27;;;;;;;5.93;3.13;;;13.00;99.90;;;;;;4948846;28;20751;-58
2022/09/27 11:46:07;;;;;;;9.75;4.22;;;12.90;99.90;;;;;;4949533;28;20043;-56
2022/09/27 11:48:44;;;;;;;7.35;3.90;;;12.70;99.90;;;;;;4953501;28;20142;-58
2022/09/27 11:51:43;;;;;;;5.57;3.80;;;12.50;99.90;;;;;;4955541;28;20348;-58
2022/09/27 11:54:34;;;;;;;5.88;3.97;;;12.50;99.90;;;;;;4943700;28;20126;-56
2022/09/27 11:57:37;;;;;;;6.95;4.40;;;12.30;99.90;;;;;;4955482;28;20481;-57
2022/09/27 12:00:23;;;;;;;8.18;4.80;;;12.10;99.90;;;;;;4949667;28;20034;-56
2022/09/27 12:03:31;;;;;;;5.80;4.10;;;12.20;99.90;;;;;;4951888;28;20039;-57
2022/09/27 12:06:09;;;;;;;5.47;3.60;;;12.30;99.90;;;;;;4955489;28;20031;-56
2022/09/27 12:08:54;;;;;;;4.45;4.05;;;12.40;99.90;;;;;;4955449;28;20066;-58
2022/09/27 12:11:37;;;;;;;3.42;2.53;;;12.40;99.90;;;;;;4950212;28;20035;-57
2022/09/27 12:14:19;;;;;;;5.18;2.45;;;11.60;99.90;;;;;;4953801;28;20061;-57
2022/09/27 12:16:49;;;;;;;2.92;2.40;;;11.10;99.90;;;;;;4959282;28;20133;-57
2022/09/27 12:19:43;;;;;;;4.40;2.50;;;11.10;99.90;;;;;;4958855;28;20039;-56
2022/09/27 12:22:15;;;;;;;3.95;2.80;;;10.80;99.90;;;;;;4956630;28;20129;-55
2022/09/27 12:24:43;;;;;;;3.63;3.08;;;11.00;99.90;;;;;;4955567;28;20038;-57
2022/09/27 12:27:15;;;;;;;3.78;2.85;;;10.90;99.90;;;;;;4958452;28;20034;-57
2022/09/27 12:29:44;;;;;;;2.97;2.50;;;11.10;99.90;;;;;;4957133;28;20030;-57
2022/09/27 12:32:26;;;;;;;1.60;1.35;;;11.20;99.90;;;;;;4957920;28;20559;-57
2022/09/27 12:35:04;;;;;;;2.28;1.20;;;11.20;99.90;;;;;;4956494;28;20042;-58
2022/09/27 12:37:46;;;;;;;1.27;1.00;;;11.20;99.90;;;;;;4950938;28;20599;-55
2022/09/27 12:40:20;;;;;;;1.70;1.27;;;11.40;99.90;;;;;;4958051;28;20033;-57
2022/09/27 12:43:03;;;;;;;1.65;1.20;;;11.60;99.90;;;;;;4954297;28;20491;-58
2022/09/27 12:45:44;;;;;;;1.67;1.20;;;11.60;99.90;;;;;;4954043;28;20110;-56
2022/09/27 12:49:04;;;;;;;2.90;1.90;;;11.90;99.90;;;;;;4957070;28;20039;-57
2022/09/27 12:51:58;;;;;;;5.55;2.03;;;12.00;99.90;;;;;;4943027;28;20511;-57
2022/09/27 12:54:48;;;;;;;10.77;5.65;;;11.90;99.90;;;;;;4945969;28;20110;-56
2022/09/27 12:57:25;;;;;;;1.92;1.25;;;12.00;99.90;;;;;;4957106;28;20550;-57
2022/09/27 12:59:54;;;;;;;1.33;0.80;;;12.10;99.90;;;;;;4955604;28;20426;-57
2022/09/27 13:02:38;;;;;;;1.17;0.63;;;12.10;99.90;;;;;;4958407;28;20070;-57
2022/09/27 13:05:23;;;;;;;1.90;0.70;;;12.10;99.90;;;;;;4963736;28;20183;-57
2022/09/27 13:08:09;;;;;;;2.35;1.98;;;12.00;99.90;;;;;;4957570;28;20085;-57
2022/09/27 13:10:34;;;;;;;2.33;1.05;;;11.80;99.90;;;;;;4960928;28;20066;-56
2022/09/27 13:13:03;;;;;;;1.95;1.05;;;11.90;99.90;;;;;;4955433;28;20073;-56
2022/09/27 13:15:35;;;;;;;1.35;0.63;;;12.00;99.90;;;;;;4953975;28;20784;-57
2022/09/27 13:18:04;;;;;;;1.73;0.50;;;12.20;99.90;;;;;;4957230;28;20479;-58
2022/09/27 13:20:35;;;;;;;1.15;0.50;;;12.30;99.90;;;;;;4959969;28;20759;-57